Cheetham Hill, United Kingdom
Current Conditions -  °F | °C
As of 4:20 AM on Wednesday 22 Oct 2014 (Local Time) from EGCC Reporting Station
Broken Clouds Broken Clouds  
Wind Chill: 43°   Ceiling: 4100
Heat Index: 48°   Visibility: 6mi
Dew Point: 41°   Wind: 13mph
Humidity: 76%   Direction: 300°WNW
Pressure: 30.15"   Gusts: NA
Location:  53.5°N, 2.24°W
Report Text: EGCC 220320Z AUTO 30011KT 9999 FEW029 SCT035 BKN041 09/05 Q1021
Loading
Personal Weather Stations






























Interactive Weather Map New forecast layout! Learn more

10-Day Weather Forecast

Advertisements
Track Severe Weather on mobile